createdAt,value
2023-04-08T00:01:39.682Z,25.77
2023-04-08T00:04:10.006Z,27.70
2023-04-08T00:06:40.545Z,26.83
2023-04-08T00:09:09.592Z,27.60
2023-04-08T00:11:39.091Z,32.03
2023-04-08T00:14:26.582Z,32.50
2023-04-08T00:16:55.636Z,36.77
2023-04-08T00:19:25.407Z,40.23
2023-04-08T00:22:00.109Z,42.90
2023-04-08T00:24:29.173Z,41.17
2023-04-08T00:26:58.392Z,39.37
2023-04-08T00:29:27.433Z,37.80
2023-04-08T00:31:56.883Z,38.27
2023-04-08T00:34:25.850Z,36.40
2023-04-08T00:36:57.125Z,35.97
2023-04-08T00:39:26.364Z,34.40
2023-04-08T00:41:55.253Z,34.37
2023-04-08T00:44:24.242Z,33.93
2023-04-08T00:46:53.318Z,34.90
2023-04-08T00:49:22.358Z,32.10
2023-04-08T00:51:51.787Z,33.63
2023-04-08T00:54:22.298Z,30.97
2023-04-08T00:56:51.262Z,30.20
2023-04-08T00:59:21.592Z,30.80
2023-04-08T01:02:16.888Z,32.83
2023-04-08T01:04:54.947Z,29.63
2023-04-08T01:07:28.482Z,29.83
2023-04-08T01:10:04.154Z,29.60
2023-04-08T01:12:34.849Z,30.63
2023-04-08T01:15:08.136Z,28.13
2023-04-08T01:17:39.537Z,27.90
2023-04-08T01:20:10.299Z,28.43
2023-04-08T01:22:48.070Z,25.43
2023-04-08T01:25:21.393Z,24.83
2023-04-08T01:27:56.677Z,26.80
2023-04-08T01:30:27.450Z,25.87
2023-04-08T01:32:58.131Z,29.03
2023-04-08T01:35:27.736Z,30.10
2023-04-08T01:37:58.295Z,30.47
2023-04-08T01:40:27.717Z,31.10
2023-04-08T01:43:00.625Z,31.73
2023-04-08T01:45:35.009Z,25.77
2023-04-08T01:48:05.136Z,25.67
2023-04-08T01:50:35.371Z,26.87
2023-04-08T01:53:05.897Z,31.50
2023-04-08T01:55:36.129Z,32.27
2023-04-08T01:58:09.025Z,25.80
2023-04-08T02:00:40.415Z,24.50
2023-04-08T02:03:13.910Z,25.83
2023-04-08T02:05:43.082Z,24.63
2023-04-08T02:08:13.411Z,23.03
2023-04-08T02:10:42.486Z,21.83
2023-04-08T02:13:12.861Z,24.20
2023-04-08T02:15:48.190Z,22.23
2023-04-08T02:18:23.027Z,22.63
2023-04-08T02:20:59.963Z,23.43
2023-04-08T02:23:31.430Z,22.73
2023-04-08T02:26:00.944Z,23.47
2023-04-08T02:28:33.810Z,22.60
2023-04-08T02:31:04.198Z,21.93
2023-04-08T02:33:35.150Z,29.30
2023-04-08T02:36:05.899Z,29.40
2023-04-08T02:38:35.254Z,28.17
2023-04-08T02:41:04.134Z,31.60
2023-04-08T02:43:37.847Z,27.10
2023-04-08T02:46:08.990Z,28.30
2023-04-08T02:48:38.879Z,26.53
2023-04-08T02:51:08.521Z,30.13
2023-04-08T02:53:37.453Z,32.43
2023-04-08T02:56:06.777Z,36.13
2023-04-08T02:58:37.120Z,34.90
2023-04-08T03:01:06.260Z,30.60
2023-04-08T03:03:35.268Z,27.90
2023-04-08T03:06:04.348Z,27.97
2023-04-08T03:08:33.996Z,27.47
2023-04-08T03:11:03.038Z,27.03
2023-04-08T03:13:32.023Z,25.70
2023-04-08T03:16:02.577Z,27.43
2023-04-08T03:18:31.618Z,26.33
2023-04-08T03:21:01.593Z,27.90
2023-04-08T03:23:30.627Z,28.97
2023-04-08T03:25:59.624Z,29.17
2023-04-08T03:28:28.577Z,29.17
2023-04-08T03:30:57.609Z,27.07
2023-04-08T03:33:28.170Z,30.33
2023-04-08T03:35:57.193Z,30.23
2023-04-08T03:38:26.146Z,28.97
2023-04-08T03:40:55.130Z,29.10
2023-04-08T03:43:42.778Z,28.47
2023-04-08T03:46:11.830Z,27.30
2023-04-08T03:48:42.620Z,29.80
2023-04-08T03:51:11.650Z,28.20
2023-04-08T03:53:40.528Z,27.93
2023-04-08T03:56:09.857Z,30.20
2023-04-08T03:58:38.887Z,30.43
2023-04-08T04:01:07.717Z,30.83
2023-04-08T04:03:36.888Z,30.27
2023-04-08T04:06:07.492Z,31.27
2023-04-08T04:08:36.683Z,31.63
2023-04-08T04:11:05.636Z,31.93
2023-04-08T04:13:34.549Z,31.57
2023-04-08T04:16:03.537Z,32.10
2023-04-08T04:18:32.575Z,34.77
2023-04-08T04:21:01.602Z,35.10
2023-04-08T04:23:31.965Z,35.07
2023-04-08T04:26:01.046Z,32.43
2023-04-08T04:28:29.942Z,31.80
2023-04-08T04:30:58.922Z,31.43
2023-04-08T04:33:28.025Z,31.33
2023-04-08T04:35:57.306Z,31.37
2023-04-08T04:38:27.331Z,31.10
2023-04-08T04:40:58.107Z,29.63
2023-04-08T04:43:27.204Z,31.80
2023-04-08T04:45:56.912Z,34.03
2023-04-08T04:48:25.886Z,34.57
2023-04-08T04:50:58.557Z,32.30
2023-04-08T04:53:27.587Z,31.80
2023-04-08T04:55:58.530Z,31.13
2023-04-08T04:58:27.404Z,33.27
2023-04-08T05:00:56.890Z,31.87
2023-04-08T05:03:25.953Z,29.93
2023-04-08T05:05:55.438Z,31.53
2023-04-08T05:08:25.945Z,28.63
2023-04-08T05:10:59.804Z,30.23
2023-04-08T05:13:28.916Z,32.63
2023-04-08T05:15:57.931Z,31.43
2023-04-08T05:18:26.955Z,28.27
2023-04-08T05:20:55.919Z,25.17
2023-04-08T05:23:24.835Z,26.43
2023-04-08T05:25:53.716Z,27.57
2023-04-08T05:28:24.152Z,29.43
2023-04-08T05:30:53.556Z,35.77
2023-04-08T05:33:22.418Z,98.23
2023-04-08T05:35:51.497Z,48.83
2023-04-08T05:38:20.695Z,31.60
2023-04-08T05:40:49.790Z,31.43
2023-04-08T05:43:18.906Z,28.27
2023-04-08T05:45:53.813Z,28.47
2023-04-08T05:48:22.949Z,28.40
2023-04-08T05:50:51.836Z,45.47
2023-04-08T05:53:20.807Z,60.93
2023-04-08T05:55:49.838Z,52.27
2023-04-08T05:58:18.896Z,73.37
2023-04-08T06:00:49.290Z,42.60
2023-04-08T06:03:20.500Z,32.93
2023-04-08T06:05:50.094Z,38.23
2023-04-08T06:08:18.958Z,37.40
2023-04-08T06:10:51.890Z,47.10
2023-04-08T06:13:22.215Z,33.17
2023-04-08T06:16:05.482Z,25.57
2023-04-08T06:18:36.110Z,31.47
2023-04-08T06:21:05.493Z,37.23
2023-04-08T06:23:38.013Z,40.37
2023-04-08T06:26:43.269Z,58.57
2023-04-08T06:29:18.200Z,36.27
2023-04-08T06:31:53.750Z,34.10
2023-04-08T06:34:26.054Z,38.97
2023-04-08T06:36:56.150Z,30.00
2023-04-08T06:39:25.396Z,32.33
2023-04-08T06:41:56.931Z,29.03
2023-04-08T06:44:40.083Z,30.23
2023-04-08T06:47:11.088Z,26.57
2023-04-08T06:49:45.418Z,33.93
2023-04-08T06:52:22.218Z,27.13
2023-04-08T06:54:54.444Z,54.37
2023-04-08T06:57:23.515Z,70.60
2023-04-08T06:59:53.231Z,33.23
2023-04-08T07:02:24.601Z,30.77
2023-04-08T07:04:53.881Z,27.50
2023-04-08T07:07:24.524Z,27.27
2023-04-08T07:09:53.727Z,27.27
2023-04-08T07:12:28.891Z,26.23
2023-04-08T07:14:57.843Z,29.27
2023-04-08T07:17:28.388Z,29.83
2023-04-08T07:19:57.934Z,24.87
2023-04-08T07:22:26.982Z,25.90
2023-04-08T07:24:56.205Z,23.27
2023-04-08T07:27:25.087Z,24.83
2023-04-08T07:29:55.498Z,25.03
2023-04-08T07:32:24.649Z,29.33
2023-04-08T07:35:00.374Z,25.60
2023-04-08T07:37:36.934Z,29.00
2023-04-08T07:40:08.548Z,26.33
2023-04-08T07:42:39.096Z,27.23
2023-04-08T07:45:18.046Z,25.97
2023-04-08T07:47:53.429Z,25.47
2023-04-08T07:50:29.336Z,27.37
2023-04-08T07:53:05.469Z,24.30
2023-04-08T07:55:44.004Z,20.47
2023-04-08T07:58:13.738Z,20.63
2023-04-08T08:00:43.099Z,23.00
2023-04-08T08:03:18.318Z,22.10
2023-04-08T08:05:49.249Z,18.77
2023-04-08T08:08:18.234Z,20.40
2023-04-08T08:10:47.161Z,19.80
2023-04-08T08:13:17.736Z,21.33
2023-04-08T08:15:46.690Z,18.53
2023-04-08T08:18:17.010Z,20.63
2023-04-08T08:20:54.575Z,18.17
2023-04-08T08:23:24.209Z,14.43
2023-04-08T08:26:02.472Z,18.93
2023-04-08T08:28:31.767Z,23.33
2023-04-08T08:31:00.963Z,17.63
2023-04-08T08:33:29.971Z,16.00
2023-04-08T08:36:10.566Z,19.50
2023-04-08T08:38:42.777Z,22.77
2023-04-08T08:41:11.743Z,21.73
2023-04-08T08:43:40.758Z,19.43
2023-04-08T08:46:13.059Z,19.70
2023-04-08T08:48:42.102Z,22.50
2023-04-08T08:51:13.790Z,21.47
2023-04-08T08:53:45.642Z,17.60
2023-04-08T08:56:17.870Z,20.33
2023-04-08T08:59:06.462Z,18.10
2023-04-08T09:01:37.795Z,15.03
2023-04-08T09:04:17.148Z,16.70
2023-04-08T09:06:50.378Z,18.90
2023-04-08T09:09:19.764Z,18.87
2023-04-08T09:11:49.276Z,15.40
2023-04-08T09:14:22.594Z,16.50
2023-04-08T09:16:52.453Z,18.00
2023-04-08T09:19:21.872Z,16.70
2023-04-08T09:22:10.271Z,15.87
2023-04-08T09:24:39.828Z,14.43
2023-04-08T09:27:08.882Z,13.83
2023-04-08T09:29:39.887Z,13.70
2023-04-08T09:32:09.167Z,14.57
2023-04-08T09:34:38.112Z,13.87
2023-04-08T09:37:07.595Z,14.93
2023-04-08T09:39:38.169Z,15.07
2023-04-08T09:42:10.749Z,13.83
2023-04-08T09:44:41.519Z,13.17
2023-04-08T09:47:16.222Z,12.93
2023-04-08T09:49:51.915Z,14.13
2023-04-08T09:52:25.109Z,16.77
2023-04-08T09:55:00.972Z,14.10
2023-04-08T09:57:38.007Z,13.80
2023-04-08T10:00:11.271Z,14.87
2023-04-08T10:02:48.881Z,16.10
2023-04-08T10:05:19.878Z,15.47
2023-04-08T10:07:50.314Z,13.90
2023-04-08T10:10:22.543Z,13.70
2023-04-08T10:12:52.251Z,12.97
2023-04-08T10:15:26.045Z,13.40
2023-04-08T10:17:55.597Z,12.43
2023-04-08T10:20:46.910Z,12.90
2023-04-08T10:23:59.474Z,13.13
2023-04-08T10:26:38.591Z,13.43
2023-04-08T10:29:32.799Z,14.63
2023-04-08T10:32:03.035Z,14.07
2023-04-08T10:34:32.425Z,13.50
2023-04-08T10:37:02.339Z,13.03
2023-04-08T10:39:33.378Z,25.23
2023-04-08T10:42:05.210Z,13.60
2023-04-08T10:44:34.260Z,13.03
2023-04-08T10:47:03.281Z,13.63
2023-04-08T10:49:37.381Z,12.50
2023-04-08T10:52:09.622Z,13.70
2023-04-08T10:54:39.881Z,13.40
2023-04-08T10:57:10.327Z,13.53
2023-04-08T10:59:40.092Z,16.63
2023-04-08T11:02:25.217Z,18.03
2023-04-08T11:04:56.300Z,17.90
2023-04-08T11:07:28.592Z,18.50
2023-04-08T11:10:16.380Z,20.20
2023-04-08T11:12:47.062Z,19.07
2023-04-08T11:15:16.795Z,16.90
2023-04-08T11:17:46.134Z,13.17
2023-04-08T11:20:15.870Z,10.67
2023-04-08T11:22:46.502Z,10.13
2023-04-08T11:25:16.054Z,9.23
2023-04-08T11:27:46.858Z,10.93
2023-04-08T11:30:16.409Z,9.63
2023-04-08T11:32:46.228Z,11.43
2023-04-08T11:35:18.189Z,15.10
2023-04-08T11:37:47.929Z,13.23
2023-04-08T11:40:24.136Z,14.97
2023-04-08T11:42:55.248Z,10.60
2023-04-08T11:45:26.065Z,9.00
2023-04-08T11:47:55.145Z,12.27
2023-04-08T11:50:30.114Z,9.30
2023-04-08T11:52:59.829Z,7.97
2023-04-08T11:55:30.062Z,8.13
2023-04-08T11:58:06.444Z,9.93
2023-04-08T12:00:35.463Z,10.57
2023-04-08T12:03:04.551Z,10.10
2023-04-08T12:05:33.529Z,5.57
2023-04-08T12:08:03.228Z,6.97
2023-04-08T12:10:32.645Z,12.83
2023-04-08T12:13:03.081Z,16.67
2023-04-08T12:15:32.965Z,35.10
2023-04-08T12:18:01.980Z,10.87
2023-04-08T12:20:31.182Z,9.20
2023-04-08T12:23:00.068Z,6.47
2023-04-08T12:25:47.801Z,7.40
2023-04-08T12:28:18.097Z,7.27
2023-04-08T12:30:47.171Z,5.77
2023-04-08T12:33:16.044Z,7.13
2023-04-08T12:35:45.202Z,6.50
2023-04-08T12:38:14.315Z,6.50
2023-04-08T12:40:43.185Z,6.60
2023-04-08T12:43:12.202Z,7.50
2023-04-08T12:45:42.899Z,5.97
2023-04-08T12:48:11.993Z,6.60
2023-04-08T12:50:40.938Z,7.43
2023-04-08T12:53:09.956Z,5.30
2023-04-08T12:55:38.865Z,5.60
2023-04-08T12:58:07.968Z,5.90
2023-04-08T13:00:39.560Z,4.87
2023-04-08T13:03:10.108Z,5.50
2023-04-08T13:05:43.226Z,6.20
2023-04-08T13:08:13.273Z,6.97
2023-04-08T13:10:44.177Z,6.63
2023-04-08T13:13:14.413Z,5.63
2023-04-08T13:16:01.794Z,6.20
2023-04-08T13:18:51.058Z,5.77
2023-04-08T13:21:32.299Z,4.90
2023-04-08T13:24:17.546Z,4.77
2023-04-08T13:27:06.337Z,4.70
2023-04-08T13:29:35.885Z,5.40
2023-04-08T13:32:06.300Z,4.60
2023-04-08T13:34:40.013Z,5.27
2023-04-08T13:37:09.075Z,4.80
2023-04-08T13:39:37.860Z,4.80
2023-04-08T13:42:06.708Z,7.80
2023-04-08T13:44:35.700Z,5.70
2023-04-08T13:47:04.508Z,7.80
2023-04-08T13:49:33.324Z,5.17
2023-04-08T13:52:03.766Z,5.60
2023-04-08T13:54:32.800Z,5.80
2023-04-08T13:57:01.638Z,6.00
2023-04-08T13:59:30.539Z,5.63
2023-04-08T14:01:59.553Z,6.07
2023-04-08T14:04:28.474Z,8.83
2023-04-08T14:06:58.353Z,7.93
2023-04-08T14:09:28.714Z,7.23
2023-04-08T14:11:57.654Z,7.70
2023-04-08T14:14:26.618Z,9.87
2023-04-08T14:16:55.855Z,6.97
2023-04-08T14:19:25.314Z,6.83
2023-04-08T14:21:54.307Z,7.50
2023-04-08T14:24:23.417Z,6.80
2023-04-08T14:26:53.717Z,7.10
2023-04-08T14:29:22.925Z,7.97
2023-04-08T14:31:51.913Z,8.00
2023-04-08T14:34:20.941Z,8.47
2023-04-08T14:36:50.193Z,9.53
2023-04-08T14:39:18.983Z,10.87
2023-04-08T14:41:48.355Z,9.20
2023-04-08T14:44:18.744Z,8.10
2023-04-08T14:46:48.270Z,8.90
2023-04-08T14:49:17.221Z,9.50
2023-04-08T14:51:46.030Z,9.03
2023-04-08T14:54:16.971Z,8.23
2023-04-08T14:56:46.392Z,8.80
2023-04-08T14:59:15.206Z,7.97
2023-04-08T15:01:46.297Z,8.43
2023-04-08T15:04:15.311Z,8.77
2023-04-08T15:06:44.738Z,8.27
2023-04-08T15:09:13.619Z,9.03
2023-04-08T15:11:42.555Z,12.37
2023-04-08T15:14:11.803Z,9.33
2023-04-08T15:16:41.055Z,8.27
2023-04-08T15:19:11.820Z,7.33
2023-04-08T15:21:40.952Z,7.67
2023-04-08T15:24:11.578Z,7.50
2023-04-08T15:26:44.099Z,8.10
2023-04-08T15:29:13.296Z,7.90
2023-04-08T15:31:43.150Z,7.93
2023-04-08T15:34:13.649Z,8.93
2023-04-08T15:36:42.493Z,8.30
2023-04-08T15:39:12.191Z,7.53
2023-04-08T15:41:42.176Z,7.80
2023-04-08T15:44:11.093Z,8.97
2023-04-08T15:46:39.979Z,8.43
2023-04-08T15:49:08.890Z,9.10
2023-04-08T15:51:39.204Z,17.37
2023-04-08T15:54:08.059Z,41.87
2023-04-08T15:56:36.939Z,22.57
2023-04-08T15:59:05.893Z,21.57
2023-04-08T16:01:34.887Z,24.37
2023-04-08T16:04:04.182Z,19.00
2023-04-08T16:06:33.865Z,19.47
2023-04-08T16:09:04.196Z,19.67
2023-04-08T16:11:34.700Z,15.93
2023-04-08T16:14:05.205Z,15.77
2023-04-08T16:16:34.168Z,19.73
2023-04-08T16:19:03.529Z,19.53
2023-04-08T16:21:32.804Z,17.67
2023-04-08T16:24:02.083Z,17.53
2023-04-08T16:26:32.498Z,25.13
2023-04-08T16:29:01.343Z,23.37
2023-04-08T16:33:59.983Z,25.83
2023-04-08T16:36:28.851Z,21.20
2023-04-08T16:38:57.642Z,22.67
2023-04-08T16:41:26.814Z,21.83
2023-04-08T16:43:57.920Z,18.57
2023-04-08T16:46:26.922Z,26.67
2023-04-08T16:48:55.710Z,21.43
2023-04-08T16:51:24.603Z,26.10
2023-04-08T16:53:54.696Z,31.57
2023-04-08T16:56:25.021Z,28.70
2023-04-08T16:58:54.010Z,35.83
2023-04-08T17:01:24.324Z,27.80
2023-04-08T17:03:53.502Z,26.87
2023-04-08T17:06:22.955Z,28.30
2023-04-08T17:08:52.692Z,26.53
2023-04-08T17:11:22.085Z,27.67
2023-04-08T17:13:51.370Z,28.43
2023-04-08T17:16:20.770Z,28.77
2023-04-08T17:18:52.463Z,26.70
2023-04-08T17:21:23.826Z,32.03
2023-04-08T17:23:53.796Z,30.40
2023-04-08T17:26:23.750Z,40.07
2023-04-08T17:28:52.621Z,41.77
2023-04-08T17:31:22.031Z,77.20
2023-04-08T17:33:52.430Z,63.73
2023-04-08T17:36:21.447Z,60.80
2023-04-08T17:38:50.228Z,43.27
2023-04-08T17:41:38.076Z,26.10
2023-04-08T17:44:07.902Z,35.97
2023-04-08T17:46:55.488Z,46.03
2023-04-08T17:49:25.893Z,41.33
2023-04-08T17:52:13.459Z,34.17
2023-04-08T17:54:42.291Z,34.80
2023-04-08T17:57:11.321Z,35.00
2023-04-08T17:59:41.318Z,29.33
2023-04-08T18:02:10.269Z,25.90
2023-04-08T18:04:41.695Z,26.90
2023-04-08T18:07:10.732Z,27.77
2023-04-08T18:09:41.019Z,26.67
2023-04-08T18:12:10.009Z,25.00
2023-04-08T18:14:39.735Z,22.93
2023-04-08T18:17:08.674Z,25.23
2023-04-08T18:19:37.712Z,27.97
2023-04-08T18:22:08.035Z,28.33
2023-04-08T18:24:37.411Z,26.93
2023-04-08T18:27:06.296Z,26.57
2023-04-08T18:29:35.170Z,26.83
2023-04-08T18:32:04.040Z,29.00
2023-04-08T18:34:33.054Z,27.07
2023-04-08T18:37:01.844Z,27.90
2023-04-08T18:39:32.093Z,28.93
2023-04-08T18:42:01.313Z,28.13
2023-04-08T18:44:30.106Z,28.70
2023-04-08T18:46:59.063Z,27.90
2023-04-08T18:49:30.609Z,25.93
2023-04-08T18:52:02.929Z,25.57
2023-04-08T18:54:33.728Z,27.20
2023-04-08T18:57:03.080Z,25.73
2023-04-08T18:59:32.057Z,25.00
2023-04-08T19:02:01.006Z,24.80
2023-04-08T19:04:30.006Z,25.27
2023-04-08T19:06:59.211Z,25.13
2023-04-08T19:09:29.155Z,23.67
2023-04-08T19:11:59.590Z,24.93
2023-04-08T19:14:29.165Z,23.27
2023-04-08T19:16:58.037Z,25.07
2023-04-08T19:19:26.856Z,25.33
2023-04-08T19:21:55.740Z,26.47
2023-04-08T19:24:25.353Z,26.63
2023-04-08T19:27:14.658Z,26.77
2023-04-08T19:29:43.750Z,26.57
2023-04-08T19:32:12.719Z,29.13
2023-04-08T19:34:42.543Z,31.00
2023-04-08T19:37:11.456Z,29.73
2023-04-08T19:39:40.256Z,30.80
2023-04-08T19:42:09.539Z,32.43
2023-04-08T19:44:40.318Z,33.80
2023-04-08T19:47:09.249Z,32.60
2023-04-08T19:49:39.193Z,39.13
2023-04-08T19:52:08.124Z,28.63
2023-04-08T19:54:37.226Z,28.57
2023-04-08T19:57:13.095Z,28.63
2023-04-08T19:59:43.713Z,30.57
2023-04-08T20:02:12.725Z,33.57
2023-04-08T20:04:42.405Z,31.13
2023-04-08T20:07:11.642Z,29.63
2023-04-08T20:09:40.672Z,28.53
2023-04-08T20:12:09.925Z,27.30
2023-04-08T20:14:43.517Z,27.33
2023-04-08T20:17:15.944Z,25.33
2023-04-08T20:19:45.212Z,25.43
2023-04-08T20:22:15.373Z,26.57
2023-04-08T20:24:44.213Z,26.13
2023-04-08T20:27:13.259Z,26.90
2023-04-08T20:29:52.039Z,28.93
2023-04-08T20:32:23.475Z,29.17
2023-04-08T20:34:53.538Z,28.77
2023-04-08T20:37:22.953Z,28.70
2023-04-08T20:39:52.491Z,28.30
2023-04-08T20:42:21.314Z,30.33
2023-04-08T20:45:10.324Z,27.90
2023-04-08T20:47:40.815Z,29.07
2023-04-08T20:50:13.743Z,29.13
2023-04-08T20:52:42.955Z,28.73
2023-04-08T20:55:12.009Z,29.33
2023-04-08T20:57:41.594Z,29.43
2023-04-08T21:00:11.511Z,30.63
2023-04-08T21:02:42.551Z,28.10
2023-04-08T21:05:14.371Z,28.40
2023-04-08T21:07:45.581Z,30.43
2023-04-08T21:10:17.665Z,35.53
2023-04-08T21:12:46.935Z,40.40
2023-04-08T21:15:15.764Z,34.93
2023-04-08T21:17:46.346Z,32.57
2023-04-08T21:20:15.762Z,30.67
2023-04-08T21:22:44.771Z,28.00
2023-04-08T21:25:14.049Z,27.07
2023-04-08T21:27:43.234Z,26.70
2023-04-08T21:30:12.731Z,25.20
2023-04-08T21:32:41.601Z,28.93
2023-04-08T21:35:12.528Z,26.67
2023-04-08T21:37:41.771Z,26.27
2023-04-08T21:40:11.899Z,26.67
2023-04-08T21:42:40.991Z,29.27
2023-04-08T21:45:11.112Z,29.40
2023-04-08T21:47:40.030Z,36.97
2023-04-08T21:50:10.146Z,33.77
2023-04-08T21:52:42.967Z,32.03
2023-04-08T21:55:31.224Z,29.50
2023-04-08T21:58:00.170Z,29.57
2023-04-08T22:00:29.333Z,33.67
2023-04-08T22:02:58.624Z,31.70
2023-04-08T22:05:27.754Z,30.63
2023-04-08T22:07:58.345Z,33.03
2023-04-08T22:10:27.916Z,32.30
2023-04-08T22:12:57.216Z,36.00
2023-04-08T22:15:26.066Z,38.47
2023-04-08T22:17:54.960Z,42.17
2023-04-08T22:20:23.893Z,45.33
2023-04-08T22:22:52.882Z,39.17
2023-04-08T22:25:23.324Z,40.97
2023-04-08T22:27:52.442Z,43.60
2023-04-08T22:30:22.000Z,41.90
2023-04-08T22:32:51.079Z,43.57
2023-04-08T22:35:20.226Z,107.83
2023-04-08T22:37:49.102Z,121.13
2023-04-08T22:40:24.251Z,74.10
2023-04-08T22:42:54.814Z,37.20
2023-04-08T22:45:24.132Z,30.47
2023-04-08T22:47:54.492Z,29.73
2023-04-08T22:50:24.046Z,29.30
2023-04-08T22:52:53.017Z,28.47
2023-04-08T22:55:21.876Z,28.03
2023-04-08T22:57:50.928Z,28.47
2023-04-08T23:00:23.707Z,28.00
2023-04-08T23:02:54.221Z,28.23
2023-04-08T23:05:23.532Z,26.37
2023-04-08T23:07:52.369Z,26.17
2023-04-08T23:10:21.347Z,25.23
2023-04-08T23:12:50.387Z,26.17
2023-04-08T23:15:20.873Z,28.63
2023-04-08T23:17:49.940Z,28.97
2023-04-08T23:20:19.005Z,30.67
2023-04-08T23:22:47.997Z,30.30
2023-04-08T23:25:17.331Z,27.83
2023-04-08T23:27:46.409Z,27.67
2023-04-08T23:30:15.327Z,29.60
2023-04-08T23:32:45.796Z,30.70
2023-04-08T23:35:16.693Z,30.03
2023-04-08T23:37:45.860Z,29.27
2023-04-08T23:40:15.568Z,29.10
2023-04-08T23:42:44.447Z,29.97
2023-04-08T23:45:13.452Z,29.03
2023-04-08T23:47:42.356Z,28.50
2023-04-08T23:50:12.915Z,29.00
2023-04-08T23:52:41.950Z,29.67
2023-04-08T23:55:11.551Z,29.20
2023-04-08T23:57:43.946Z,27.37
